Hsc Superjet — IINO — position and weather

sailwx.info

Track history (hours):
 
Tides and Currents Weather Stations Pressure Air Temp Water Temp Dewpoint Dewpoint Depression Visibility Wind Speed Wind Dir Waves Ship Positions

Hsc Superjet

Last reported at 2015-May-26 11:27 UTC. Time now 2015-May-26 11:46 UTC.
Position N 40°50' E 014°16'.

Length 44 m; draft 1.4 m.

Type: High speed craft. MMSI: 247540000.

Date/timePositionNaut miles runAvg speedWind from/ knotsBaromVisibWave heightAir tempDewpointWater temp
2015-May-26 11:27N 40°50' E 014°16'1718.8
2015-May-26 10:33N 40°33' E 014°14'0 0.0
2015-May-26 09:31N 40°33' E 014°14'1714.2
2015-May-26 08:21N 40°50' E 014°17'1720.7
2015-May-26 07:33N 40°33' E 014°14'10 4.8
2015-May-26 05:33N 40°42' E 014°21'4 3.6
2015-May-26 04:29N 40°38' E 014°23'0 0.0
2015-May-26 03:33N 40°38' E 014°23'0 0.0
2015-May-26 02:32N 40°38' E 014°23'0 0.0
2015-May-26 01:31N 40°38' E 014°23'0 0.0
2015-May-26 00:33N 40°38' E 014°23'0 0.0
2015-May-25 23:32N 40°38' E 014°23'0 0.0
2015-May-25 22:33N 40°38' E 014°23'0 0.0
2015-May-25 21:33N 40°38' E 014°23'0 0.0
2015-May-25 20:33N 40°38' E 014°23'0 0.0
2015-May-25 19:32N 40°38' E 014°23'0 0.0
2015-May-25 18:33N 40°38' E 014°23'0 0.0
2015-May-25 17:26N 40°38' E 014°23'6 3.4
2015-May-25 15:33N 40°43' E 014°18'10 9.8
2015-May-25 14:33N 40°33' E 014°14'16 8.0
2015-May-25 12:30N 40°50' E 014°17'1617.5
2015-May-25 11:34N 40°33' E 014°14'0 0.0
2015-May-25 10:34N 40°33' E 014°14'17 7.4
2015-May-25 08:20N 40°50' E 014°17'1721.4
2015-May-25 07:33N 40°33' E 014°14'9 4.7
2015-May-25 05:33N 40°41' E 014°21'3 3.3
2015-May-25 04:33N 40°38' E 014°23'0 0.0
2015-May-25 03:29N 40°38' E 014°23'0 0.0
2015-May-25 02:33N 40°38' E 014°23'0 0.0
2015-May-25 01:32N 40°38' E 014°23'0 0.0
2015-May-25 00:31N 40°38' E 014°23'0 0.0
2015-May-24 23:33N 40°38' E 014°23'0 0.0
2015-May-24 22:33N 40°38' E 014°23'0 0.0
2015-May-24 21:33N 40°38' E 014°23'0 0.0
2015-May-24 20:31N 40°38' E 014°23'0 0.0
2015-May-24 19:30N 40°38' E 014°23'0 0.0
2015-May-24 18:31N 40°38' E 014°23'0 0.0
2015-May-24 17:33N 40°38' E 014°23'7 3.3
2015-May-24 15:33N 40°42' E 014°16'8 8.5
2015-May-24 14:33N 40°33' E 014°14'0 0.1
2015-May-24 13:33N 40°33' E 014°14'8 7.7
2015-May-24 12:34N 40°38' E 014°23'8 7.5
2015-May-24 11:33N 40°33' E 014°14'1 1.4
2015-May-24 10:33N 40°35' E 014°16'16 7.2
2015-May-24 08:23N 40°50' E 014°16'1719.8
2015-May-24 07:33N 40°33' E 014°14'9 4.4
2015-May-24 05:30N 40°41' E 014°21'3 3.1
2015-May-24 04:33N 40°38' E 014°23'0 0.0
2015-May-24 03:33N 40°38' E 014°23'0 0.0
2015-May-24 02:33N 40°38' E 014°23'0 0.0
2015-May-24 01:33N 40°38' E 014°23'0 0.0
2015-May-24 00:33N 40°38' E 014°23'0 0.0
2015-May-23 23:33N 40°38' E 014°23'0 0.0
2015-May-23 22:33N 40°38' E 014°23'0 0.0
2015-May-23 21:33N 40°38' E 014°23'0 0.0
2015-May-23 20:33N 40°38' E 014°23'0 0.0
2015-May-23 19:33N 40°38' E 014°23'0 0.0
2015-May-23 18:33N 40°38' E 014°23'0 0.0
2015-May-23 17:26N 40°38' E 014°23'13 6.2
2015-May-23 15:21N 40°50' E 014°17'1720.8
2015-May-23 14:33N 40°33' E 014°14'2 2.5
2015-May-23 13:33N 40°35' E 014°16'1513.3
2015-May-23 12:27N 40°50' E 014°16'1718.3
2015-May-23 11:32N 40°33' E 014°14'1 1.0
2015-May-23 10:33N 40°34' E 014°15'16 7.6
2015-May-23 08:27N 40°50' E 014°16'1718.2
2015-May-23 07:32N 40°33' E 014°14'9 4.5
2015-May-23 05:33N 40°41' E 014°21'3 3.0
2015-May-23 04:32N 40°38' E 014°23'0 0.0
2015-May-23 03:26N 40°38' E 014°23'0 0.0
2015-May-23 02:31N 40°38' E 014°23'0 0.0
2015-May-23 01:32N 40°38' E 014°23'0 0.0
2015-May-23 00:32N 40°38' E 014°23'0 0.0
2015-May-22 23:33N 40°38' E 014°23'0 0.0
2015-May-22 22:30N 40°38' E 014°23'13 1.3
2015-May-22 12:30N 40°50' E 014°16'1717.8
2015-May-22 11:33N 40°33' E 014°14'0 0.0
2015-May-22 10:32N 40°33' E 014°14'1 0.7
2015-May-22 09:32N 40°34' E 014°15'1613.6
2015-May-22 08:22N 40°50' E 014°17'1620.1
2015-May-22 07:33N 40°33' E 014°14'9 4.2
2015-May-22 05:30N 40°40' E 014°22'2 2.6
2015-May-22 04:34N 40°38' E 014°23'0 0.0
2015-May-22 03:33N 40°38' E 014°23'0 0.0
2015-May-22 02:33N 40°38' E 014°23'0 0.0
2015-May-22 01:33N 40°38' E 014°23'0 0.0
2015-May-22 00:34N 40°38' E 014°23'0 0.0
2015-May-21 23:33N 40°38' E 014°23'0 0.0
2015-May-21 22:33N 40°38' E 014°23'0 0.0
2015-May-21 21:31N 40°38' E 014°23'0 0.0
2015-May-21 20:31N 40°38' E 014°23'0 0.0
2015-May-21 19:33N 40°38' E 014°23'0 0.0
2015-May-21 18:31N 40°38' E 014°23'0 0.0
2015-May-21 17:31N 40°38' E 014°23'7 3.5
2015-May-21 15:34N 40°42' E 014°16'9 8.7
2015-May-21 14:31N 40°33' E 014°14'17 8.2
2015-May-21 12:29N 40°50' E 014°16'1718.1
2015-May-21 11:33N 40°33' E 014°14'0 0.0
2015-May-21 10:33N 40°33' E 014°14'0 0.0
2015-May-21 09:34N 40°33' E 014°14'1714.0
2015-May-21 08:22N 40°50' E 014°17'1720.4
2015-May-21 07:33N 40°33' E 014°14'10 4.9
2015-May-21 05:34N 40°42' E 014°21'4 4.1
2015-May-21 04:33N 40°38' E 014°23'0 0.0
2015-May-21 03:32N 40°38' E 014°23'0 0.0
2015-May-21 02:31N 40°38' E 014°23'0 0.0
2015-May-21 01:33N 40°38' E 014°23'0 0.0
2015-May-21 00:33N 40°38' E 014°23'0 0.0
2015-May-20 23:33N 40°38' E 014°23'0 0.0
2015-May-20 22:33N 40°38' E 014°23'0 0.0
2015-May-20 21:32N 40°38' E 014°23'0 0.0
2015-May-20 20:33N 40°38' E 014°23'0 0.0
2015-May-20 19:33N 40°38' E 014°23'0 0.0
2015-May-20 18:32N 40°38' E 014°23'0 0.0
2015-May-20 17:32N 40°38' E 014°23'6 3.0
2015-May-20 15:33N 40°41' E 014°16'8 7.6
2015-May-20 14:33N 40°33' E 014°14'1713.1
2015-May-20 13:16N 40°50' E 014°15'1 0.9
2015-May-20 12:25N 40°50' E 014°16'1719.2
2015-May-20 11:33N 40°33' E 014°14'0 0.0
2015-May-20 10:32N 40°33' E 014°14'0 0.0
2015-May-20 09:33N 40°33' E 014°14'1614.1
2015-May-20 08:23N 40°50' E 014°17'1619.8
2015-May-20 07:33N 40°33' E 014°14'10 4.8
2015-May-20 05:33N 40°42' E 014°21'4 3.8
2015-May-20 04:33N 40°38' E 014°23'0 0.0
2015-May-20 03:33N 40°38' E 014°23'0 0.0
2015-May-20 02:31N 40°38' E 014°23'0 0.0
2015-May-20 01:33N 40°38' E 014°23'0 0.0
2015-May-20 00:33N 40°38' E 014°23'0 0.0
2015-May-19 23:29N 40°38' E 014°23'0 0.0
2015-May-19 22:33N 40°38' E 014°23'0 0.0
2015-May-19 21:31N 40°38' E 014°23'0 0.0
2015-May-19 20:31N 40°38' E 014°23'0 0.0
2015-May-19 19:32N 40°38' E 014°23'0 0.0
2015-May-19 18:30N 40°38' E 014°23'0 0.0
2015-May-19 17:33N 40°38' E 014°23'1312.6
2015-May-19 16:33N 40°50' E 014°17'8 7.5
2015-May-19 15:33N 40°42' E 014°16'9 8.5
2015-May-19 14:33N 40°34' E 014°15'17 8.1
2015-May-19 12:30N 40°50' E 014°16'1717.6
2015-May-19 11:33N 40°33' E 014°14'0 0.1
2015-May-19 10:33N 40°33' E 014°15'17 7.9
2015-May-19 08:26N 40°50' E 014°17'1718.9
2015-May-19 07:33N 40°33' E 014°14'10 5.0
2015-May-19 05:33N 40°42' E 014°22'4 3.7
2015-May-19 04:31N 40°38' E 014°23'0 0.0
2015-May-19 03:33N 40°38' E 014°23'0 0.0
2015-May-19 02:31N 40°38' E 014°23'0 0.0
2015-May-19 01:32N 40°38' E 014°23'0 0.0
2015-May-19 00:32N 40°38' E 014°23'0 0.0
2015-May-18 23:33N 40°38' E 014°23'0 0.0
2015-May-18 22:30N 40°38' E 014°23'0 0.0
2015-May-18 21:33N 40°38' E 014°23'0 0.0
2015-May-18 20:29N 40°38' E 014°23'0 0.0
2015-May-18 19:33N 40°38' E 014°23'0 0.0
2015-May-18 18:33N 40°38' E 014°23'0 0.0
2015-May-18 17:33N 40°38' E 014°23'7 3.7
2015-May-18 15:33N 40°44' E 014°17'1010.4
2015-May-18 14:33N 40°33' E 014°14'17 8.2
2015-May-18 12:30N 40°50' E 014°16'1715.3
2015-May-18 11:25N 40°33' E 014°14'0 0.0
2015-May-18 10:31N 40°33' E 014°14'0 0.0
2015-May-18 09:32N 40°33' E 014°14'1713.9
2015-May-18 08:21N 40°50' E 014°17'1720.9
2015-May-18 07:33N 40°33' E 014°14'10 4.8
2015-May-18 05:34N 40°42' E 014°21'4 3.9
2015-May-18 04:33N 40°38' E 014°23'0 0.0
2015-May-18 03:33N 40°38' E 014°23'0 0.0
2015-May-18 02:32N 40°38' E 014°23'0 0.0
2015-May-18 01:33N 40°38' E 014°23'0 0.0
2015-May-18 00:29N 40°38' E 014°23'0 0.0
2015-May-17 23:32N 40°38' E 014°23'0 0.0
2015-May-17 22:31N 40°38' E 014°23'0 0.0
2015-May-17 21:33N 40°38' E 014°23'0 0.0
2015-May-17 20:33N 40°38' E 014°23'0 0.0
2015-May-17 19:30N 40°38' E 014°23'0 0.0
2015-May-17 18:32N 40°38' E 014°23'0 0.0
2015-May-17 17:33N 40°38' E 014°23'1313.0
2015-May-17 16:33N 40°50' E 014°16'8 8.0
2015-May-17 15:33N 40°42' E 014°17'9 8.4
2015-May-17 14:32N 40°33' E 014°15'16 8.0
2015-May-17 12:29N 40°50' E 014°17'1617.6
2015-May-17 11:33N 40°33' E 014°14'1 0.9
2015-May-17 10:33N 40°34' E 014°15'1615.1
2015-May-17 09:28N 40°50' E 014°15'1 0.9
2015-May-17 08:23N 40°50' E 014°17'1720.1
2015-May-17 07:33N 40°33' E 014°14'1715.8
2015-May-17 06:29N 40°50' E 014°15'1011.3
2015-May-17 05:34N 40°41' E 014°22'3 3.2
2015-May-17 04:31N 40°38' E 014°23'0 0.0
2015-May-17 03:31N 40°38' E 014°23'0 0.0
2015-May-17 02:33N 40°38' E 014°23'0 0.0
2015-May-17 01:33N 40°38' E 014°23'0 0.0
2015-May-17 00:34N 40°38' E 014°23'0 0.0
2015-May-16 23:31N 40°38' E 014°23'0 0.0
2015-May-16 22:33N 40°38' E 014°23'0 0.0
2015-May-16 21:31N 40°38' E 014°23'0 0.0
2015-May-16 20:33N 40°38' E 014°23'0 0.0
2015-May-16 19:32N 40°38' E 014°23'0 0.0
2015-May-16 18:33N 40°38' E 014°23'0 0.0
2015-May-16 17:31N 40°38' E 014°23'6 3.1
2015-May-16 15:33N 40°43' E 014°18'10 9.0
2015-May-16 14:30N 40°33' E 014°14'  
Track history (hours):
 
Tides and Currents Weather Stations Pressure Air Temp Water Temp Dewpoint Dewpoint Depression Visibility Wind Speed Wind Dir Waves Ship Positions

Hsc Superjet

Last reported at 2015-May-26 11:27 UTC. Time now 2015-May-26 11:46 UTC.
Position N 40°50' E 014°16'.

Length 44 m; draft 1.4 m.

Type: High speed craft. MMSI: 247540000.

Date/timePositionNaut miles runAvg speedWind from/ knotsBaromVisibWave heightAir tempDewpointWater temp
2015-May-26 11:27N 40°50' E 014°16'1718.8
2015-May-26 10:33N 40°33' E 014°14'0 0.0
2015-May-26 09:31N 40°33' E 014°14'1714.2
2015-May-26 08:21N 40°50' E 014°17'1720.7
2015-May-26 07:33N 40°33' E 014°14'10 4.8
2015-May-26 05:33N 40°42' E 014°21'4 3.6
2015-May-26 04:29N 40°38' E 014°23'0 0.0
2015-May-26 03:33N 40°38' E 014°23'0 0.0
2015-May-26 02:32N 40°38' E 014°23'0 0.0
2015-May-26 01:31N 40°38' E 014°23'0 0.0
2015-May-26 00:33N 40°38' E 014°23'0 0.0
2015-May-25 23:32N 40°38' E 014°23'0 0.0
2015-May-25 22:33N 40°38' E 014°23'0 0.0
2015-May-25 21:33N 40°38' E 014°23'0 0.0
2015-May-25 20:33N 40°38' E 014°23'0 0.0
2015-May-25 19:32N 40°38' E 014°23'0 0.0
2015-May-25 18:33N 40°38' E 014°23'0 0.0
2015-May-25 17:26N 40°38' E 014°23'6 3.4
2015-May-25 15:33N 40°43' E 014°18'10 9.8
2015-May-25 14:33N 40°33' E 014°14'16 8.0
2015-May-25 12:30N 40°50' E 014°17'1617.5
2015-May-25 11:34N 40°33' E 014°14'0 0.0
2015-May-25 10:34N 40°33' E 014°14'17 7.4
2015-May-25 08:20N 40°50' E 014°17'1721.4
2015-May-25 07:33N 40°33' E 014°14'9 4.7
2015-May-25 05:33N 40°41' E 014°21'3 3.3
2015-May-25 04:33N 40°38' E 014°23'0 0.0
2015-May-25 03:29N 40°38' E 014°23'0 0.0
2015-May-25 02:33N 40°38' E 014°23'0 0.0
2015-May-25 01:32N 40°38' E 014°23'0 0.0
2015-May-25 00:31N 40°38' E 014°23'0 0.0
2015-May-24 23:33N 40°38' E 014°23'0 0.0
2015-May-24 22:33N 40°38' E 014°23'0 0.0
2015-May-24 21:33N 40°38' E 014°23'0 0.0
2015-May-24 20:31N 40°38' E 014°23'0 0.0
2015-May-24 19:30N 40°38' E 014°23'0 0.0
2015-May-24 18:31N 40°38' E 014°23'0 0.0
2015-May-24 17:33N 40°38' E 014°23'7 3.3
2015-May-24 15:33N 40°42' E 014°16'8 8.5
2015-May-24 14:33N 40°33' E 014°14'0 0.1
2015-May-24 13:33N 40°33' E 014°14'8 7.7
2015-May-24 12:34N 40°38' E 014°23'8 7.5
2015-May-24 11:33N 40°33' E 014°14'1 1.4
2015-May-24 10:33N 40°35' E 014°16'16 7.2
2015-May-24 08:23N 40°50' E 014°16'1719.8
2015-May-24 07:33N 40°33' E 014°14'9 4.4
2015-May-24 05:30N 40°41' E 014°21'3 3.1
2015-May-24 04:33N 40°38' E 014°23'0 0.0
2015-May-24 03:33N 40°38' E 014°23'0 0.0
2015-May-24 02:33N 40°38' E 014°23'0 0.0
2015-May-24 01:33N 40°38' E 014°23'0 0.0
2015-May-24 00:33N 40°38' E 014°23'0 0.0
2015-May-23 23:33N 40°38' E 014°23'0 0.0
2015-May-23 22:33N 40°38' E 014°23'0 0.0
2015-May-23 21:33N 40°38' E 014°23'0 0.0
2015-May-23 20:33N 40°38' E 014°23'0 0.0
2015-May-23 19:33N 40°38' E 014°23'0 0.0
2015-May-23 18:33N 40°38' E 014°23'0 0.0
2015-May-23 17:26N 40°38' E 014°23'13 6.2
2015-May-23 15:21N 40°50' E 014°17'1720.8
2015-May-23 14:33N 40°33' E 014°14'2 2.5
2015-May-23 13:33N 40°35' E 014°16'1513.3
2015-May-23 12:27N 40°50' E 014°16'1718.3
2015-May-23 11:32N 40°33' E 014°14'1 1.0
2015-May-23 10:33N 40°34' E 014°15'16 7.6
2015-May-23 08:27N 40°50' E 014°16'1718.2
2015-May-23 07:32N 40°33' E 014°14'9 4.5
2015-May-23 05:33N 40°41' E 014°21'3 3.0
2015-May-23 04:32N 40°38' E 014°23'0 0.0
2015-May-23 03:26N 40°38' E 014°23'0 0.0
2015-May-23 02:31N 40°38' E 014°23'0 0.0
2015-May-23 01:32N 40°38' E 014°23'0 0.0
2015-May-23 00:32N 40°38' E 014°23'0 0.0
2015-May-22 23:33N 40°38' E 014°23'0 0.0
2015-May-22 22:30N 40°38' E 014°23'13 1.3
2015-May-22 12:30N 40°50' E 014°16'1717.8
2015-May-22 11:33N 40°33' E 014°14'0 0.0
2015-May-22 10:32N 40°33' E 014°14'1 0.7
2015-May-22 09:32N 40°34' E 014°15'1613.6
2015-May-22 08:22N 40°50' E 014°17'1620.1
2015-May-22 07:33N 40°33' E 014°14'9 4.2
2015-May-22 05:30N 40°40' E 014°22'2 2.6
2015-May-22 04:34N 40°38' E 014°23'0 0.0
2015-May-22 03:33N 40°38' E 014°23'0 0.0
2015-May-22 02:33N 40°38' E 014°23'0 0.0
2015-May-22 01:33N 40°38' E 014°23'0 0.0
2015-May-22 00:34N 40°38' E 014°23'0 0.0
2015-May-21 23:33N 40°38' E 014°23'0 0.0
2015-May-21 22:33N 40°38' E 014°23'0 0.0
2015-May-21 21:31N 40°38' E 014°23'0 0.0
2015-May-21 20:31N 40°38' E 014°23'0 0.0
2015-May-21 19:33N 40°38' E 014°23'0 0.0
2015-May-21 18:31N 40°38' E 014°23'0 0.0
2015-May-21 17:31N 40°38' E 014°23'7 3.5
2015-May-21 15:34N 40°42' E 014°16'9 8.7
2015-May-21 14:31N 40°33' E 014°14'17 8.2
2015-May-21 12:29N 40°50' E 014°16'1718.1
2015-May-21 11:33N 40°33' E 014°14'0 0.0
2015-May-21 10:33N 40°33' E 014°14'0 0.0
2015-May-21 09:34N 40°33' E 014°14'1714.0
2015-May-21 08:22N 40°50' E 014°17'1720.4
2015-May-21 07:33N 40°33' E 014°14'10 4.9
2015-May-21 05:34N 40°42' E 014°21'4 4.1
2015-May-21 04:33N 40°38' E 014°23'0 0.0
2015-May-21 03:32N 40°38' E 014°23'0 0.0
2015-May-21 02:31N 40°38' E 014°23'0 0.0
2015-May-21 01:33N 40°38' E 014°23'0 0.0
2015-May-21 00:33N 40°38' E 014°23'0 0.0
2015-May-20 23:33N 40°38' E 014°23'0 0.0
2015-May-20 22:33N 40°38' E 014°23'0 0.0
2015-May-20 21:32N 40°38' E 014°23'0 0.0
2015-May-20 20:33N 40°38' E 014°23'0 0.0
2015-May-20 19:33N 40°38' E 014°23'0 0.0
2015-May-20 18:32N 40°38' E 014°23'0 0.0
2015-May-20 17:32N 40°38' E 014°23'6 3.0
2015-May-20 15:33N 40°41' E 014°16'8 7.6
2015-May-20 14:33N 40°33' E 014°14'1713.1
2015-May-20 13:16N 40°50' E 014°15'1 0.9
2015-May-20 12:25N 40°50' E 014°16'1719.2
2015-May-20 11:33N 40°33' E 014°14'0 0.0
2015-May-20 10:32N 40°33' E 014°14'0 0.0
2015-May-20 09:33N 40°33' E 014°14'1614.1
2015-May-20 08:23N 40°50' E 014°17'1619.8
2015-May-20 07:33N 40°33' E 014°14'10 4.8
2015-May-20 05:33N 40°42' E 014°21'4 3.8
2015-May-20 04:33N 40°38' E 014°23'0 0.0
2015-May-20 03:33N 40°38' E 014°23'0 0.0
2015-May-20 02:31N 40°38' E 014°23'0 0.0
2015-May-20 01:33N 40°38' E 014°23'0 0.0
2015-May-20 00:33N 40°38' E 014°23'0 0.0
2015-May-19 23:29N 40°38' E 014°23'0 0.0
2015-May-19 22:33N 40°38' E 014°23'0 0.0
2015-May-19 21:31N 40°38' E 014°23'0 0.0
2015-May-19 20:31N 40°38' E 014°23'0 0.0
2015-May-19 19:32N 40°38' E 014°23'0 0.0
2015-May-19 18:30N 40°38' E 014°23'0 0.0
2015-May-19 17:33N 40°38' E 014°23'1312.6
2015-May-19 16:33N 40°50' E 014°17'8 7.5
2015-May-19 15:33N 40°42' E 014°16'9 8.5
2015-May-19 14:33N 40°34' E 014°15'17 8.1
2015-May-19 12:30N 40°50' E 014°16'1717.6
2015-May-19 11:33N 40°33' E 014°14'0 0.1
2015-May-19 10:33N 40°33' E 014°15'17 7.9
2015-May-19 08:26N 40°50' E 014°17'1718.9
2015-May-19 07:33N 40°33' E 014°14'10 5.0
2015-May-19 05:33N 40°42' E 014°22'4 3.7
2015-May-19 04:31N 40°38' E 014°23'0 0.0
2015-May-19 03:33N 40°38' E 014°23'0 0.0
2015-May-19 02:31N 40°38' E 014°23'0 0.0
2015-May-19 01:32N 40°38' E 014°23'0 0.0
2015-May-19 00:32N 40°38' E 014°23'0 0.0
2015-May-18 23:33N 40°38' E 014°23'0 0.0
2015-May-18 22:30N 40°38' E 014°23'0 0.0
2015-May-18 21:33N 40°38' E 014°23'0 0.0
2015-May-18 20:29N 40°38' E 014°23'0 0.0
2015-May-18 19:33N 40°38' E 014°23'0 0.0
2015-May-18 18:33N 40°38' E 014°23'0 0.0
2015-May-18 17:33N 40°38' E 014°23'7 3.7
2015-May-18 15:33N 40°44' E 014°17'1010.4
2015-May-18 14:33N 40°33' E 014°14'17 8.2
2015-May-18 12:30N 40°50' E 014°16'1715.3
2015-May-18 11:25N 40°33' E 014°14'0 0.0
2015-May-18 10:31N 40°33' E 014°14'0 0.0
2015-May-18 09:32N 40°33' E 014°14'1713.9
2015-May-18 08:21N 40°50' E 014°17'1720.9
2015-May-18 07:33N 40°33' E 014°14'10 4.8
2015-May-18 05:34N 40°42' E 014°21'4 3.9
2015-May-18 04:33N 40°38' E 014°23'0 0.0
2015-May-18 03:33N 40°38' E 014°23'0 0.0
2015-May-18 02:32N 40°38' E 014°23'0 0.0
2015-May-18 01:33N 40°38' E 014°23'0 0.0
2015-May-18 00:29N 40°38' E 014°23'0 0.0
2015-May-17 23:32N 40°38' E 014°23'0 0.0
2015-May-17 22:31N 40°38' E 014°23'0 0.0
2015-May-17 21:33N 40°38' E 014°23'0 0.0
2015-May-17 20:33N 40°38' E 014°23'0 0.0
2015-May-17 19:30N 40°38' E 014°23'0 0.0
2015-May-17 18:32N 40°38' E 014°23'0 0.0
2015-May-17 17:33N 40°38' E 014°23'1313.0
2015-May-17 16:33N 40°50' E 014°16'8 8.0
2015-May-17 15:33N 40°42' E 014°17'9 8.4
2015-May-17 14:32N 40°33' E 014°15'16 8.0
2015-May-17 12:29N 40°50' E 014°17'1617.6
2015-May-17 11:33N 40°33' E 014°14'1 0.9
2015-May-17 10:33N 40°34' E 014°15'1615.1
2015-May-17 09:28N 40°50' E 014°15'1 0.9
2015-May-17 08:23N 40°50' E 014°17'1720.1
2015-May-17 07:33N 40°33' E 014°14'1715.8
2015-May-17 06:29N 40°50' E 014°15'1011.3
2015-May-17 05:34N 40°41' E 014°22'3 3.2
2015-May-17 04:31N 40°38' E 014°23'0 0.0
2015-May-17 03:31N 40°38' E 014°23'0 0.0
2015-May-17 02:33N 40°38' E 014°23'0 0.0
2015-May-17 01:33N 40°38' E 014°23'0 0.0
2015-May-17 00:34N 40°38' E 014°23'0 0.0
2015-May-16 23:31N 40°38' E 014°23'0 0.0
2015-May-16 22:33N 40°38' E 014°23'0 0.0
2015-May-16 21:31N 40°38' E 014°23'0 0.0
2015-May-16 20:33N 40°38' E 014°23'0 0.0
2015-May-16 19:32N 40°38' E 014°23'0 0.0
2015-May-16 18:33N 40°38' E 014°23'0 0.0
2015-May-16 17:31N 40°38' E 014°23'6 3.1
2015-May-16 15:33N 40°43' E 014°18'10 9.0
2015-May-16 14:30N 40°33' E 014°14'  

Dump ship's entire track history